createdAt,value
2023-05-22T00:00:56.430Z,92.15
2023-05-22T00:01:58.184Z,92.96
2023-05-22T00:03:00.658Z,93.22
2023-05-22T00:04:03.085Z,93.04
2023-05-22T00:05:06.798Z,93.32
2023-05-22T00:06:10.159Z,93.23
2023-05-22T00:07:11.806Z,92.42
2023-05-22T00:08:13.416Z,92.08
2023-05-22T00:09:15.179Z,92.15
2023-05-22T00:10:16.905Z,92.33
2023-05-22T00:11:18.706Z,92.90
2023-05-22T00:12:20.465Z,92.87
2023-05-22T00:13:22.119Z,92.57
2023-05-22T00:14:23.833Z,93.04
2023-05-22T00:15:25.529Z,93.11
2023-05-22T00:16:27.194Z,92.92
2023-05-22T00:17:30.757Z,93.29
2023-05-22T00:18:32.532Z,93.34
2023-05-22T00:19:35.168Z,92.87
2023-05-22T00:20:40.979Z,92.98
2023-05-22T00:21:43.505Z,93.14
2023-05-22T00:22:45.102Z,93.22
2023-05-22T00:23:46.817Z,93.30
2023-05-22T00:24:48.405Z,93.36
2023-05-22T00:25:50.769Z,93.61
2023-05-22T00:26:52.373Z,93.37
2023-05-22T00:27:54.086Z,93.46
2023-05-22T00:28:55.777Z,93.53
2023-05-22T00:29:58.288Z,93.82
2023-05-22T00:31:00.102Z,94.05
2023-05-22T00:32:01.747Z,93.67
2023-05-22T00:33:03.831Z,93.79
2023-05-22T00:34:05.704Z,93.82
2023-05-22T00:35:08.123Z,93.91
2023-05-22T00:36:09.662Z,93.61
2023-05-22T00:37:11.298Z,93.68
2023-05-22T00:38:32.401Z,93.87
2023-05-22T00:39:34.087Z,93.96
2023-05-22T00:40:36.131Z,93.89
2023-05-22T00:41:38.589Z,93.53
2023-05-22T00:42:40.125Z,93.70
2023-05-22T00:43:41.805Z,93.48
2023-05-22T00:44:43.409Z,93.58
2023-05-22T00:45:45.792Z,93.71
2023-05-22T00:46:47.437Z,93.67
2023-05-22T00:47:49.343Z,93.62
2023-05-22T00:48:52.611Z,93.98
2023-05-22T00:49:54.699Z,94.12
2023-05-22T00:50:57.841Z,93.87
2023-05-22T00:52:00.804Z,94.69
2023-05-22T00:53:02.488Z,94.29
2023-05-22T00:54:05.208Z,95.14
2023-05-22T00:55:08.827Z,94.96
2023-05-22T00:56:10.581Z,94.88
2023-05-22T00:57:12.807Z,94.82
2023-05-22T00:58:17.374Z,94.90
2023-05-22T00:59:19.225Z,94.50
2023-05-22T01:00:21.368Z,94.67
2023-05-22T01:01:23.233Z,95.41
2023-05-22T01:02:25.005Z,95.03
2023-05-22T01:03:27.379Z,95.09
2023-05-22T01:04:32.649Z,94.80
2023-05-22T01:05:34.793Z,94.71
2023-05-22T01:06:36.426Z,95.29
2023-05-22T01:07:38.075Z,95.04
2023-05-22T01:08:40.149Z,95.29
2023-05-22T01:09:41.877Z,94.54
2023-05-22T01:10:43.499Z,94.75
2023-05-22T01:11:54.988Z,94.49
2023-05-22T01:13:34.891Z,94.24
2023-05-22T01:14:55.218Z,94.29
2023-05-22T01:16:25.247Z,95.11
2023-05-22T01:17:53.437Z,94.99
2023-05-22T01:18:55.699Z,94.95
2023-05-22T01:20:21.642Z,94.62
2023-05-22T01:21:48.946Z,94.39
2023-05-22T01:23:28.004Z,94.33
2023-05-22T01:24:51.928Z,94.69
2023-05-22T01:26:02.916Z,95.13
2023-05-22T01:27:07.417Z,94.89
2023-05-22T01:28:43.470Z,94.87
2023-05-22T01:30:00.422Z,94.45
2023-05-22T01:31:03.077Z,95.05
2023-05-22T01:32:05.370Z,95.13
2023-05-22T01:33:08.553Z,95.02
2023-05-22T01:34:12.089Z,94.15
2023-05-22T01:35:17.870Z,93.80
2023-05-22T01:36:22.553Z,93.90
2023-05-22T01:37:24.900Z,93.82
2023-05-22T01:38:27.877Z,93.51
2023-05-22T01:39:29.870Z,94.46
2023-05-22T01:40:32.207Z,94.73
2023-05-22T01:41:34.698Z,94.32
2023-05-22T01:42:36.260Z,95.02
2023-05-22T01:43:37.976Z,94.64
2023-05-22T01:44:41.406Z,94.81
2023-05-22T01:45:43.138Z,95.07
2023-05-22T01:46:44.765Z,95.64
2023-05-22T01:47:46.692Z,96.02
2023-05-22T01:48:49.142Z,96.25
2023-05-22T01:49:51.902Z,96.08
2023-05-22T01:50:54.772Z,95.97
2023-05-22T01:52:37.912Z,95.97
2023-05-22T01:53:48.205Z,95.82
2023-05-22T01:54:54.622Z,96.03
2023-05-22T01:56:02.528Z,95.63
2023-05-22T01:57:07.171Z,95.89
2023-05-22T01:58:25.314Z,96.05
2023-05-22T01:59:33.403Z,95.64
2023-05-22T02:00:35.634Z,96.21
2023-05-22T02:01:38.284Z,95.74
2023-05-22T02:02:43.175Z,96.37
2023-05-22T02:03:46.515Z,97.03
2023-05-22T02:05:00.144Z,96.54
2023-05-22T02:06:05.382Z,96.65
2023-05-22T02:07:07.080Z,95.59
2023-05-22T02:08:10.382Z,95.50
2023-05-22T02:09:17.011Z,96.23
2023-05-22T02:10:19.769Z,96.42
2023-05-22T02:11:22.723Z,96.70
2023-05-22T02:12:24.679Z,96.47
2023-05-22T02:13:26.324Z,96.49
2023-05-22T02:14:28.727Z,96.09
2023-05-22T02:15:31.078Z,95.80
2023-05-22T02:16:33.967Z,96.12
2023-05-22T02:17:42.572Z,96.63
2023-05-22T02:18:45.403Z,96.22
2023-05-22T02:19:47.208Z,96.44
2023-05-22T02:20:48.897Z,96.87
2023-05-22T02:21:50.565Z,96.77
2023-05-22T02:22:52.156Z,97.00
2023-05-22T02:23:53.760Z,96.26
2023-05-22T02:24:55.551Z,96.13
2023-05-22T02:25:57.981Z,96.37
2023-05-22T02:27:01.551Z,95.52
2023-05-22T02:28:03.251Z,96.56
2023-05-22T02:29:04.908Z,96.64
2023-05-22T02:30:07.240Z,97.85
2023-05-22T02:31:09.451Z,98.32
2023-05-22T02:32:11.156Z,97.28
2023-05-22T02:33:12.951Z,97.00
2023-05-22T02:34:14.564Z,97.14
2023-05-22T02:35:16.264Z,96.55
2023-05-22T02:36:17.870Z,97.12
2023-05-22T02:37:22.075Z,97.15
2023-05-22T02:38:23.677Z,97.98
2023-05-22T02:39:28.756Z,97.39
2023-05-22T02:40:30.423Z,97.43
2023-05-22T02:41:32.071Z,96.95
2023-05-22T02:42:34.436Z,95.86
2023-05-22T02:43:36.656Z,96.79
2023-05-22T02:44:38.282Z,96.59
2023-05-22T02:45:39.913Z,97.18
2023-05-22T02:46:41.590Z,97.19
2023-05-22T02:47:43.298Z,97.39
2023-05-22T02:48:45.524Z,97.40
2023-05-22T02:49:47.496Z,98.00
2023-05-22T02:50:49.938Z,97.42
2023-05-22T02:51:51.624Z,98.75
2023-05-22T02:52:53.406Z,97.80
2023-05-22T02:53:55.148Z,97.29
2023-05-22T02:54:56.800Z,97.48
2023-05-22T02:55:58.861Z,99.48
2023-05-22T02:57:00.594Z,97.53
2023-05-22T02:58:02.899Z,98.10
2023-05-22T02:59:04.533Z,97.56
2023-05-22T03:00:11.641Z,97.36
2023-05-22T03:01:13.479Z,97.86
2023-05-22T03:02:15.429Z,97.37
2023-05-22T03:03:18.043Z,96.80
2023-05-22T03:04:19.834Z,97.07
2023-05-22T03:05:21.593Z,97.07
2023-05-22T03:06:23.235Z,97.04
2023-05-22T03:07:26.383Z,97.29
2023-05-22T03:08:29.095Z,98.01
2023-05-22T03:09:30.762Z,97.48
2023-05-22T03:10:32.359Z,97.10
2023-05-22T03:11:34.240Z,96.61
2023-05-22T03:12:36.038Z,97.08
2023-05-22T03:13:37.686Z,97.45
2023-05-22T03:14:39.339Z,97.27
2023-05-22T03:15:40.997Z,98.52
2023-05-22T03:16:47.660Z,97.79
2023-05-22T03:17:49.452Z,97.59
2023-05-22T03:18:51.513Z,97.87
2023-05-22T03:19:53.187Z,97.74
2023-05-22T03:20:54.956Z,97.70
2023-05-22T03:21:56.600Z,97.50
2023-05-22T03:22:58.400Z,97.59
2023-05-22T03:24:00.000Z,97.50
2023-05-22T03:25:01.733Z,97.93
2023-05-22T03:26:04.560Z,97.03
2023-05-22T03:27:09.652Z,97.06
2023-05-22T03:28:14.940Z,96.67
2023-05-22T03:29:16.754Z,96.71
2023-05-22T03:30:18.788Z,97.07
2023-05-22T03:31:32.392Z,97.26
2023-05-22T03:32:41.008Z,97.18
2023-05-22T03:33:42.842Z,98.13
2023-05-22T03:34:44.608Z,99.32
2023-05-22T03:35:46.580Z,98.43
2023-05-22T03:36:48.581Z,99.70
2023-05-22T03:37:51.606Z,97.22
2023-05-22T03:38:53.477Z,97.43
2023-05-22T03:39:55.126Z,97.13
2023-05-22T03:41:01.360Z,97.92
2023-05-22T03:42:03.158Z,98.90
2023-05-22T03:43:04.838Z,98.21
2023-05-22T03:44:06.579Z,97.20
2023-05-22T03:45:09.089Z,96.61
2023-05-22T03:46:12.407Z,97.44
2023-05-22T03:47:14.173Z,97.03
2023-05-22T03:48:15.849Z,97.62
2023-05-22T03:49:17.561Z,96.46
2023-05-22T03:50:19.305Z,96.77
2023-05-22T03:51:21.561Z,95.79
2023-05-22T03:52:23.338Z,95.59
2023-05-22T03:53:24.923Z,96.04
2023-05-22T03:54:26.533Z,95.54
2023-05-22T03:55:28.148Z,95.94
2023-05-22T03:56:29.818Z,97.30
2023-05-22T03:57:31.470Z,95.98
2023-05-22T03:58:33.084Z,95.30
2023-05-22T03:59:34.674Z,95.61
2023-05-22T04:00:38.520Z,95.21
2023-05-22T04:01:40.283Z,95.59
2023-05-22T04:02:45.005Z,95.36
2023-05-22T04:03:47.448Z,95.24
2023-05-22T04:04:49.154Z,95.26
2023-05-22T04:05:52.186Z,95.53
2023-05-22T04:06:54.358Z,95.96
2023-05-22T04:07:56.378Z,96.06
2023-05-22T04:08:57.954Z,95.25
2023-05-22T04:09:59.707Z,95.90
2023-05-22T04:11:01.377Z,95.75
2023-05-22T04:12:04.712Z,95.80
2023-05-22T04:13:06.385Z,96.37
2023-05-22T04:14:09.069Z,97.17
2023-05-22T04:15:10.605Z,96.36
2023-05-22T04:16:12.282Z,97.46
2023-05-22T04:17:14.030Z,96.89
2023-05-22T04:18:15.829Z,97.37
2023-05-22T04:19:18.116Z,95.74
2023-05-22T04:20:22.175Z,95.02
2023-05-22T04:21:25.499Z,95.18
2023-05-22T04:22:27.581Z,95.21
2023-05-22T04:23:29.195Z,96.61
2023-05-22T04:24:31.393Z,94.49
2023-05-22T04:25:34.598Z,94.67
2023-05-22T04:26:37.282Z,94.60
2023-05-22T04:27:38.990Z,94.48
2023-05-22T04:28:40.836Z,93.25
2023-05-22T04:29:42.451Z,93.29
2023-05-22T04:30:44.488Z,93.65
2023-05-22T04:31:46.267Z,93.17
2023-05-22T04:32:48.027Z,93.82
2023-05-22T04:33:50.778Z,93.36
2023-05-22T04:34:53.693Z,92.00
2023-05-22T04:35:55.286Z,91.89
2023-05-22T04:36:56.924Z,90.55
2023-05-22T04:38:02.165Z,89.04
2023-05-22T04:39:04.117Z,86.88
2023-05-22T04:40:07.712Z,86.04
2023-05-22T04:41:10.254Z,82.84
2023-05-22T04:42:15.991Z,80.07
2023-05-22T04:43:18.730Z,79.10
2023-05-22T04:44:23.832Z,77.47
2023-05-22T04:45:28.947Z,76.40
2023-05-22T04:46:34.473Z,76.66
2023-05-22T04:47:38.255Z,75.44
2023-05-22T04:48:42.004Z,74.14
2023-05-22T04:49:45.669Z,72.44
2023-05-22T04:50:48.276Z,72.25
2023-05-22T04:51:49.780Z,72.44
2023-05-22T04:52:51.408Z,71.65
2023-05-22T04:53:55.615Z,70.34
2023-05-22T04:54:58.811Z,71.84
2023-05-22T04:56:02.120Z,71.50
2023-05-22T04:57:04.916Z,71.46
2023-05-22T04:58:06.531Z,70.26
2023-05-22T04:59:09.056Z,72.08
2023-05-22T05:00:13.059Z,70.65
2023-05-22T05:01:14.738Z,70.15
2023-05-22T05:02:17.557Z,69.38
2023-05-22T05:03:20.121Z,68.77
2023-05-22T05:04:23.432Z,69.38
2023-05-22T05:05:25.111Z,69.31
2023-05-22T05:06:27.772Z,67.37
2023-05-22T05:07:29.752Z,67.89
2023-05-22T05:08:32.095Z,68.97
2023-05-22T05:09:34.360Z,67.09
2023-05-22T05:10:36.700Z,66.92
2023-05-22T05:11:39.105Z,65.38
2023-05-22T05:12:40.654Z,64.01
2023-05-22T05:13:42.956Z,63.15
2023-05-22T05:14:44.534Z,64.01
2023-05-22T05:15:49.909Z,62.92
2023-05-22T05:16:52.111Z,64.52
2023-05-22T05:17:53.814Z,63.62
2023-05-22T05:18:55.698Z,63.64
2023-05-22T05:19:57.485Z,63.21
2023-05-22T05:20:59.963Z,62.54
2023-05-22T05:22:01.543Z,63.18
2023-05-22T05:23:03.775Z,62.78
2023-05-22T05:24:06.415Z,61.67
2023-05-22T05:25:09.576Z,63.52
2023-05-22T05:26:13.894Z,61.57
2023-05-22T05:27:16.018Z,63.71
2023-05-22T05:28:20.052Z,62.79
2023-05-22T05:29:22.406Z,61.00
2023-05-22T05:30:31.854Z,61.72
2023-05-22T05:31:52.268Z,61.65
2023-05-22T05:33:26.183Z,60.38
2023-05-22T05:34:40.481Z,59.67
2023-05-22T05:36:04.230Z,59.50
2023-05-22T05:37:07.049Z,57.14
2023-05-22T05:38:09.080Z,57.21
2023-05-22T05:39:13.249Z,56.81
2023-05-22T05:40:15.914Z,54.95
2023-05-22T05:41:23.074Z,53.30
2023-05-22T05:42:30.925Z,53.17
2023-05-22T05:43:34.213Z,52.69
2023-05-22T05:44:39.542Z,51.17
2023-05-22T05:45:43.607Z,50.16
2023-05-22T05:46:45.465Z,50.79
2023-05-22T05:47:48.291Z,49.23
2023-05-22T05:48:50.798Z,49.02
2023-05-22T05:49:52.472Z,48.12
2023-05-22T05:50:54.368Z,49.67
2023-05-22T05:51:56.549Z,48.77
2023-05-22T05:52:58.936Z,49.78
2023-05-22T05:54:00.663Z,48.89
2023-05-22T05:55:03.136Z,49.69
2023-05-22T05:56:06.629Z,48.13
2023-05-22T05:57:08.658Z,48.85
2023-05-22T05:58:10.262Z,49.37
2023-05-22T05:59:20.696Z,48.04
2023-05-22T06:00:42.447Z,47.07
2023-05-22T06:01:46.033Z,46.69
2023-05-22T06:02:54.944Z,46.72
2023-05-22T06:04:35.812Z,45.89
2023-05-22T06:05:38.418Z,45.00
2023-05-22T06:06:54.044Z,45.08
2023-05-22T06:08:01.505Z,44.54
2023-05-22T06:09:06.081Z,43.77
2023-05-22T06:10:12.257Z,44.39
2023-05-22T06:11:35.135Z,42.89
2023-05-22T06:12:37.846Z,43.97
2023-05-22T06:13:39.510Z,42.11
2023-05-22T06:14:41.201Z,42.99
2023-05-22T06:15:42.892Z,43.05
2023-05-22T06:16:45.854Z,41.91
2023-05-22T06:17:47.719Z,41.00
2023-05-22T06:18:49.654Z,40.58
2023-05-22T06:19:51.459Z,41.78
2023-05-22T06:20:53.393Z,41.82
2023-05-22T06:21:55.033Z,40.53
2023-05-22T06:22:56.873Z,41.42
2023-05-22T06:23:58.906Z,41.72
2023-05-22T06:25:00.586Z,39.65
2023-05-22T06:26:05.157Z,39.96
2023-05-22T06:27:06.944Z,39.54
2023-05-22T06:28:09.051Z,41.10
2023-05-22T06:29:10.910Z,40.33
2023-05-22T06:30:14.789Z,39.95
2023-05-22T06:31:16.546Z,39.59
2023-05-22T06:32:20.454Z,38.99
2023-05-22T06:33:23.112Z,38.45
2023-05-22T06:34:25.814Z,39.20
2023-05-22T06:35:27.586Z,37.37
2023-05-22T06:36:29.231Z,38.78
2023-05-22T06:37:35.433Z,38.39
2023-05-22T06:38:38.012Z,38.40
2023-05-22T06:39:41.339Z,38.11
2023-05-22T06:40:51.170Z,38.46
2023-05-22T06:41:56.519Z,38.35
2023-05-22T06:42:59.293Z,38.32
2023-05-22T06:44:02.166Z,36.61
2023-05-22T06:45:06.148Z,35.46
2023-05-22T06:46:16.671Z,38.06
2023-05-22T06:47:27.052Z,37.16
2023-05-22T06:48:28.749Z,36.32
2023-05-22T06:49:51.407Z,36.09
2023-05-22T06:50:53.112Z,35.82
2023-05-22T06:51:54.897Z,35.27
2023-05-22T06:52:57.003Z,34.38
2023-05-22T06:53:58.724Z,34.88
2023-05-22T06:55:07.972Z,35.17
2023-05-22T06:56:22.818Z,34.97
2023-05-22T06:57:28.791Z,33.63
2023-05-22T06:58:31.212Z,33.84
2023-05-22T06:59:33.155Z,34.75
2023-05-22T07:00:41.290Z,34.03
2023-05-22T07:01:49.261Z,34.56
2023-05-22T07:02:56.236Z,34.00
2023-05-22T07:04:05.110Z,33.48
2023-05-22T07:05:10.412Z,33.11
2023-05-22T07:06:23.128Z,32.83
2023-05-22T07:07:24.773Z,33.17
2023-05-22T07:08:30.305Z,31.96
2023-05-22T07:09:32.597Z,32.45
2023-05-22T07:10:34.264Z,32.29
2023-05-22T07:11:36.002Z,32.84
2023-05-22T07:12:37.758Z,32.84
2023-05-22T07:13:39.422Z,32.72
2023-05-22T07:14:41.308Z,30.60
2023-05-22T07:15:45.820Z,31.08
2023-05-22T07:16:48.234Z,32.37
2023-05-22T07:17:55.412Z,32.31
2023-05-22T07:18:57.433Z,33.18
2023-05-22T07:19:59.945Z,32.36
2023-05-22T07:21:02.677Z,31.97
2023-05-22T07:22:04.847Z,31.54
2023-05-22T07:23:09.237Z,31.62
2023-05-22T07:24:12.493Z,30.92
2023-05-22T07:25:16.179Z,31.37
2023-05-22T07:26:18.842Z,30.72
2023-05-22T07:27:27.594Z,31.52
2023-05-22T07:28:29.868Z,30.94
2023-05-22T07:29:38.322Z,31.15
2023-05-22T07:30:41.833Z,30.98
2023-05-22T07:31:43.629Z,31.94
2023-05-22T07:32:46.298Z,32.32
2023-05-22T07:33:48.013Z,32.04
2023-05-22T07:34:50.909Z,31.30
2023-05-22T07:35:52.683Z,29.98
2023-05-22T07:36:54.658Z,30.99
2023-05-22T07:37:56.727Z,31.45
2023-05-22T07:38:58.476Z,30.06
2023-05-22T07:40:00.246Z,31.40
2023-05-22T07:41:04.722Z,31.03
2023-05-22T07:42:07.972Z,30.87
2023-05-22T07:43:15.729Z,29.38
2023-05-22T07:44:17.653Z,30.35
2023-05-22T07:45:19.590Z,30.18
2023-05-22T07:46:21.918Z,29.35
2023-05-22T07:47:30.979Z,30.41
2023-05-22T07:48:32.669Z,29.89
2023-05-22T07:49:34.298Z,29.80
2023-05-22T07:50:36.566Z,31.02
2023-05-22T07:51:38.731Z,30.89
2023-05-22T07:52:40.346Z,29.63
2023-05-22T07:53:42.295Z,28.36
2023-05-22T07:54:45.303Z,28.95
2023-05-22T07:55:48.004Z,29.09
2023-05-22T07:56:50.074Z,32.18
2023-05-22T07:57:53.328Z,32.60
2023-05-22T07:59:03.009Z,30.44
2023-05-22T08:00:12.834Z,31.37
2023-05-22T08:01:18.330Z,31.09
2023-05-22T08:02:20.028Z,28.95
2023-05-22T08:03:24.059Z,28.46
2023-05-22T08:04:26.336Z,29.86
2023-05-22T08:05:28.113Z,30.27
2023-05-22T08:06:29.927Z,28.51
2023-05-22T08:07:32.977Z,29.31
2023-05-22T08:08:34.855Z,30.00
2023-05-22T08:09:36.788Z,30.67
2023-05-22T08:11:43.125Z,30.79
2023-05-22T08:12:44.779Z,30.60
2023-05-22T08:13:46.412Z,33.00
2023-05-22T08:14:48.079Z,31.68
2023-05-22T08:15:49.770Z,30.69
2023-05-22T08:16:51.416Z,31.26
2023-05-22T08:17:53.217Z,29.67
2023-05-22T08:18:54.873Z,31.04
2023-05-22T08:19:56.586Z,29.76
2023-05-22T08:20:59.689Z,29.20
2023-05-22T08:22:01.365Z,28.25
2023-05-22T08:23:03.005Z,29.85
2023-05-22T08:24:04.758Z,29.05
2023-05-22T08:25:06.725Z,30.62
2023-05-22T08:26:11.120Z,29.76
2023-05-22T08:27:12.735Z,28.31
2023-05-22T08:28:14.518Z,28.28
2023-05-22T08:29:16.176Z,31.39
2023-05-22T08:30:17.960Z,32.52
2023-05-22T08:31:19.627Z,33.68
2023-05-22T08:32:21.283Z,34.38
2023-05-22T08:33:22.989Z,33.72
2023-05-22T08:34:25.178Z,31.71
2023-05-22T08:35:26.950Z,31.07
2023-05-22T08:36:31.331Z,29.32
2023-05-22T08:37:33.051Z,29.30
2023-05-22T08:38:34.795Z,28.29
2023-05-22T08:39:36.483Z,29.13
2023-05-22T08:40:39.405Z,33.25
2023-05-22T08:41:43.838Z,33.90
2023-05-22T08:42:45.631Z,34.19
2023-05-22T08:43:47.557Z,32.98
2023-05-22T08:44:49.972Z,31.97
2023-05-22T08:46:08.982Z,31.58
2023-05-22T08:47:11.314Z,31.10
2023-05-22T08:48:14.507Z,31.86
2023-05-22T08:49:16.534Z,30.54
2023-05-22T08:50:19.107Z,30.01
2023-05-22T08:51:21.581Z,29.29
2023-05-22T08:52:23.471Z,28.99
2023-05-22T08:53:26.649Z,29.23
2023-05-22T08:54:28.730Z,28.73
2023-05-22T08:55:30.602Z,28.52
2023-05-22T08:56:35.210Z,29.43
2023-05-22T08:57:39.085Z,30.44
2023-05-22T08:58:40.907Z,32.23
2023-05-22T08:59:43.378Z,32.98
2023-05-22T09:00:45.385Z,30.71
2023-05-22T09:01:47.937Z,29.77
2023-05-22T09:02:50.044Z,33.00
2023-05-22T09:03:51.907Z,32.51
2023-05-22T09:04:53.631Z,30.96
2023-05-22T09:05:55.321Z,32.02
2023-05-22T09:06:56.974Z,29.54
2023-05-22T09:08:08.391Z,30.61
2023-05-22T09:09:18.691Z,32.13
2023-05-22T09:10:20.206Z,32.09
2023-05-22T09:11:22.506Z,30.99
2023-05-22T09:12:26.023Z,29.49
2023-05-22T09:13:30.702Z,28.38
2023-05-22T09:14:41.746Z,30.32
2023-05-22T09:15:43.478Z,29.86
2023-05-22T09:16:46.518Z,31.35
2023-05-22T09:17:48.274Z,35.71
2023-05-22T09:18:50.583Z,35.72
2023-05-22T09:19:52.262Z,33.52
2023-05-22T09:20:53.882Z,35.56
2023-05-22T09:22:03.246Z,31.93
2023-05-22T09:23:15.641Z,32.42
2023-05-22T09:24:17.315Z,30.54
2023-05-22T09:25:20.050Z,29.35
2023-05-22T09:26:21.698Z,31.59
2023-05-22T09:27:23.395Z,29.94
2023-05-22T09:28:25.466Z,30.53
2023-05-22T09:29:27.093Z,29.42
2023-05-22T09:30:28.757Z,30.80
2023-05-22T09:31:30.707Z,29.96
2023-05-22T09:32:32.454Z,31.45
2023-05-22T09:33:37.307Z,31.79
2023-05-22T09:34:39.139Z,33.59
2023-05-22T09:35:42.174Z,31.93
2023-05-22T09:36:44.107Z,30.64
2023-05-22T09:37:45.883Z,31.60
2023-05-22T09:38:47.779Z,33.76
2023-05-22T09:39:52.809Z,33.34
2023-05-22T09:40:54.890Z,31.16
2023-05-22T09:41:58.243Z,30.41
2023-05-22T09:42:59.915Z,32.23
2023-05-22T09:44:02.284Z,32.76
2023-05-22T09:45:05.913Z,33.27
2023-05-22T09:46:07.599Z,31.85
2023-05-22T09:47:11.767Z,30.96
2023-05-22T09:48:16.727Z,30.71
2023-05-22T09:49:18.326Z,28.90
2023-05-22T09:50:19.962Z,28.83
2023-05-22T09:51:23.831Z,28.52
2023-05-22T09:52:28.623Z,29.67
2023-05-22T09:53:33.103Z,28.83
2023-05-22T09:54:35.165Z,27.37
2023-05-22T09:55:36.947Z,28.45
2023-05-22T09:56:40.059Z,27.74
2023-05-22T09:57:45.439Z,28.13
2023-05-22T09:58:47.852Z,28.77
2023-05-22T09:59:54.466Z,29.28
2023-05-22T10:00:57.609Z,29.01
2023-05-22T10:02:02.013Z,29.00
2023-05-22T10:03:09.467Z,28.50
2023-05-22T10:04:14.253Z,27.33
2023-05-22T10:05:21.793Z,27.45
2023-05-22T10:06:24.296Z,27.93
2023-05-22T10:07:37.690Z,28.61
2023-05-22T10:08:44.186Z,27.28
2023-05-22T10:09:51.034Z,29.09
2023-05-22T10:10:53.216Z,32.14
2023-05-22T10:11:55.602Z,31.26
2023-05-22T10:13:09.430Z,29.03
2023-05-22T10:14:11.542Z,30.86
2023-05-22T10:15:13.843Z,32.33
2023-05-22T10:16:16.660Z,29.92
2023-05-22T10:17:18.791Z,29.61
2023-05-22T10:18:20.328Z,30.44
2023-05-22T10:19:26.891Z,30.84
2023-05-22T10:20:29.567Z,31.86
2023-05-22T10:21:32.048Z,29.26
2023-05-22T10:22:43.183Z,29.71
2023-05-22T10:23:45.355Z,29.73
2023-05-22T10:24:49.921Z,28.14
2023-05-22T10:25:52.195Z,29.24
2023-05-22T10:26:54.563Z,31.44
2023-05-22T10:27:57.164Z,33.79
2023-05-22T10:29:12.262Z,31.87
2023-05-22T10:30:49.760Z,30.77
2023-05-22T10:32:47.163Z,32.83
2023-05-22T10:33:52.649Z,32.22
2023-05-22T10:35:06.078Z,30.52
2023-05-22T10:36:19.789Z,32.30
2023-05-22T10:37:35.619Z,33.90
2023-05-22T10:39:05.058Z,32.97
2023-05-22T10:40:09.323Z,33.09
2023-05-22T10:41:11.272Z,32.47
2023-05-22T10:42:13.866Z,30.16
2023-05-22T10:43:15.635Z,31.69
2023-05-22T10:44:18.070Z,31.15
2023-05-22T10:45:20.052Z,30.28
2023-05-22T10:46:22.051Z,29.32
2023-05-22T10:47:23.783Z,30.44
2023-05-22T10:48:25.979Z,29.80
2023-05-22T10:49:28.494Z,27.87
2023-05-22T10:50:30.354Z,29.49
2023-05-22T10:51:32.419Z,29.80
2023-05-22T10:52:35.065Z,30.44
2023-05-22T10:53:37.018Z,27.94
2023-05-22T10:54:41.324Z,29.87
2023-05-22T10:55:50.449Z,31.15
2023-05-22T10:57:09.814Z,30.36
2023-05-22T10:58:14.366Z,30.28
2023-05-22T10:59:15.984Z,33.28
2023-05-22T11:00:19.364Z,30.67
2023-05-22T11:01:27.291Z,31.45
2023-05-22T11:02:43.568Z,30.83
2023-05-22T11:04:04.134Z,32.29
2023-05-22T11:05:34.386Z,34.84
2023-05-22T11:06:37.128Z,33.57
2023-05-22T11:07:41.399Z,32.13
2023-05-22T11:08:43.029Z,32.33
2023-05-22T11:09:48.754Z,34.68
2023-05-22T11:10:55.279Z,34.30
2023-05-22T11:12:24.999Z,34.86
2023-05-22T11:13:29.131Z,33.67
2023-05-22T11:14:31.328Z,31.98
2023-05-22T11:15:32.963Z,31.66
2023-05-22T11:16:34.809Z,33.49
2023-05-22T11:17:39.626Z,35.39
2023-05-22T11:18:41.416Z,33.48
2023-05-22T11:19:43.307Z,32.66
2023-05-22T11:20:46.715Z,34.88
2023-05-22T11:21:48.628Z,36.57
2023-05-22T11:22:52.070Z,38.45
2023-05-22T11:23:53.787Z,37.08
2023-05-22T11:24:55.539Z,38.24
2023-05-22T11:26:17.616Z,34.31
2023-05-22T11:27:20.176Z,36.07
2023-05-22T11:28:22.898Z,35.38
2023-05-22T11:29:24.558Z,36.10
2023-05-22T11:30:30.948Z,36.02
2023-05-22T11:31:33.036Z,35.07
2023-05-22T11:32:45.590Z,36.12
2023-05-22T11:33:48.287Z,36.30
2023-05-22T11:34:50.650Z,38.77
2023-05-22T11:35:53.480Z,38.80
2023-05-22T11:37:01.596Z,37.03
2023-05-22T11:38:07.232Z,39.67
2023-05-22T11:39:09.183Z,37.09
2023-05-22T11:40:12.700Z,37.22
2023-05-22T11:41:15.398Z,36.01
2023-05-22T11:42:18.686Z,35.49
2023-05-22T11:43:33.053Z,37.09
2023-05-22T11:44:34.917Z,38.75
2023-05-22T11:45:40.079Z,40.95
2023-05-22T11:46:42.165Z,37.74
2023-05-22T11:47:44.076Z,37.67
2023-05-22T11:48:47.516Z,38.31
2023-05-22T11:49:49.326Z,39.10
2023-05-22T11:50:51.378Z,39.72
2023-05-22T11:51:53.189Z,42.48
2023-05-22T11:52:56.261Z,40.88
2023-05-22T11:53:58.047Z,40.38
2023-05-22T11:55:00.397Z,39.74
2023-05-22T11:56:03.610Z,39.84
2023-05-22T11:57:08.765Z,42.00
2023-05-22T11:58:10.450Z,40.19
2023-05-22T11:59:12.157Z,42.43
2023-05-22T12:00:14.247Z,39.97
2023-05-22T12:01:15.993Z,38.12
2023-05-22T12:02:18.818Z,40.17
2023-05-22T12:03:20.547Z,40.38
2023-05-22T12:04:23.137Z,40.20
2023-05-22T12:05:24.821Z,38.64
2023-05-22T12:06:26.645Z,39.45
2023-05-22T12:07:28.733Z,40.68
2023-05-22T12:08:30.809Z,38.38
2023-05-22T12:09:32.649Z,37.77
2023-05-22T12:10:34.229Z,36.88
2023-05-22T12:11:36.484Z,38.04
2023-05-22T12:12:38.663Z,41.12
2023-05-22T12:13:40.352Z,39.42
2023-05-22T12:14:45.019Z,39.87
2023-05-22T12:15:46.725Z,37.61
2023-05-22T12:16:52.348Z,35.04
2023-05-22T12:17:57.105Z,36.18
2023-05-22T12:18:58.892Z,37.03
2023-05-22T12:20:00.851Z,37.05
2023-05-22T12:21:05.963Z,40.77
2023-05-22T12:22:08.967Z,37.27
2023-05-22T12:23:26.915Z,39.91
2023-05-22T12:24:38.197Z,42.46
2023-05-22T12:25:39.823Z,39.59
2023-05-22T12:26:41.691Z,41.33
2023-05-22T12:27:45.290Z,35.25
2023-05-22T12:28:46.966Z,39.14
2023-05-22T12:29:48.596Z,37.17
2023-05-22T12:30:54.761Z,38.55
2023-05-22T12:32:02.727Z,36.31
2023-05-22T12:33:04.415Z,37.97
2023-05-22T12:34:09.115Z,37.57
2023-05-22T12:35:17.909Z,38.54
2023-05-22T12:36:19.664Z,42.72
2023-05-22T12:37:22.897Z,40.63
2023-05-22T12:38:26.292Z,41.06
2023-05-22T12:39:28.757Z,37.20
2023-05-22T12:40:30.365Z,39.02
2023-05-22T12:41:32.011Z,36.71
2023-05-22T12:42:33.649Z,38.96
2023-05-22T12:43:35.550Z,39.55
2023-05-22T12:44:38.993Z,37.41
2023-05-22T12:45:43.199Z,38.55
2023-05-22T12:46:44.947Z,36.14
2023-05-22T12:47:46.998Z,36.78
2023-05-22T12:48:48.725Z,36.83
2023-05-22T12:49:50.996Z,36.95
2023-05-22T12:50:52.616Z,38.67
2023-05-22T12:51:54.238Z,36.74
2023-05-22T12:52:56.093Z,37.62
2023-05-22T12:53:58.753Z,36.07
2023-05-22T12:55:00.386Z,37.27
2023-05-22T12:56:02.075Z,38.97
2023-05-22T12:57:03.735Z,38.19
2023-05-22T12:58:05.936Z,41.15
2023-05-22T12:59:07.603Z,38.96
2023-05-22T13:00:10.048Z,39.04
2023-05-22T13:01:11.708Z,41.31
2023-05-22T13:02:13.408Z,42.18
2023-05-22T13:03:15.019Z,40.72
2023-05-22T13:04:17.744Z,39.19
2023-05-22T13:05:19.520Z,42.17
2023-05-22T13:06:21.285Z,40.17
2023-05-22T13:07:22.935Z,37.93
2023-05-22T13:08:25.453Z,38.07
2023-05-22T13:09:27.166Z,37.26
2023-05-22T13:10:29.332Z,37.11
2023-05-22T13:11:31.066Z,39.37
2023-05-22T13:12:33.326Z,38.47
2023-05-22T13:13:34.863Z,37.09
2023-05-22T13:14:38.870Z,38.75
2023-05-22T13:15:40.727Z,38.92
2023-05-22T13:16:42.774Z,37.40
2023-05-22T13:17:44.471Z,40.95
2023-05-22T13:18:46.407Z,40.42
2023-05-22T13:19:48.186Z,36.81
2023-05-22T13:20:49.960Z,39.28
2023-05-22T13:21:51.603Z,38.92
2023-05-22T13:22:53.207Z,39.33
2023-05-22T13:23:55.403Z,36.12
2023-05-22T13:24:57.022Z,34.18
2023-05-22T13:25:58.644Z,36.26
2023-05-22T13:27:00.412Z,36.50
2023-05-22T13:28:02.240Z,40.52
2023-05-22T13:29:04.331Z,38.76
2023-05-22T13:30:06.828Z,38.85
2023-05-22T13:31:08.478Z,41.92
2023-05-22T13:32:12.118Z,41.86
2023-05-22T13:33:13.938Z,39.78
2023-05-22T13:34:15.801Z,39.18
2023-05-22T13:35:18.102Z,40.06
2023-05-22T13:36:19.906Z,43.23
2023-05-22T13:37:21.673Z,42.48
2023-05-22T13:38:23.287Z,40.88
2023-05-22T13:39:24.928Z,38.12
2023-05-22T13:40:26.676Z,39.49
2023-05-22T13:41:28.380Z,38.53
2023-05-22T13:42:30.104Z,39.72
2023-05-22T13:43:33.454Z,37.45
2023-05-22T13:44:35.347Z,38.58
2023-05-22T13:45:37.013Z,40.55
2023-05-22T13:46:40.764Z,40.10